Terminal Aerodrome Forecast
Issued by NWS

Home | Current Version | Previous Version | Text Only | Print | Product List | Glossary On
Versions: 1 2 3 4 5 6 7 8 9 10 11 12 13 14 15 16 17 18 19 20 21 22 23 24 25 26 27 28 29
000
FTUS42 KMFL 270223 AAB
TAFMIA
TAF AMD
KMIA 270223Z 2702/2724 12011KT P6SM VCTS SCT030CB BKN250
      TEMPO 2702/2704 4SM TSRA BKN025CB BKN060 OVC250
     FM270400 11005KT P6SM VCSH SCT030 SCT250
     FM270900 10010KT P6SM SCT030 SCT250=

USA.gov is the U.S. government's official web portal to all federal, state and local government web resources and services.